PWSweather.com
Personal Weather Stations
Station Observations
ANTHEMNP
Anthem, AZ 85086

Anthem, AZ 85086

Lat: 33.876464, Lon: -112.13861199999997

Elevation: 1930

Station Type: AcuRite 1036

High Low Average
Temperature 92.3°F33.5°C 60.6°F15.9°C 78.7°F25.9°C
Dew Point 40.1°F4.5°C 29.4°F-1.4°C 34.3°F1.3°C
Winds 9.2 mph 14.8 kmh Calm Calm 2.0 mph SE3.2 kmh SE
Wind Gusts 11.5 mph18.5 kmh -- 3.0 mph4.8 kmh
Humidity 33% 13% 21%
Pressure 27.78 in940.7 mb 27.69 in937.7 mb -
Precipitation 0.00 in0.0 mm - -
Hour Temp Dew Point Humidity Winds Wind Gusts Pressure Precip Precip Rate Daily Precip Total
12:00 AM 69.2°F20.7°C 36.4°F2.4°C 30% Calm Calm -- 27.70 in938.0 mb - 0.00 in0.0 mm 0.00 in0.0 mm
12:10 AM 68.5°F20.3°C 35.8°F2.1°C 30% Calm Calm -- 27.70 in938.0 mb - 0.00 in0.0 mm 0.00 in0.0 mm
12:15 AM 68.7°F20.4°C 36.0°F2.2°C 30% Calm Calm -- 27.70 in938.0 mb - 0.00 in0.0 mm 0.00 in0.0 mm
12:20 AM 68.5°F20.3°C 35.8°F2.1°C 30% Calm Calm -- 27.69 in937.7 mb - 0.00 in0.0 mm 0.00 in0.0 mm
12:25 AM 68.4°F20.2°C 35.8°F2.1°C 30% Calm Calm -- 27.69 in937.7 mb - 0.00 in0.0 mm 0.00 in0.0 mm
12:30 AM 68.0°F20.0°C 35.4°F1.9°C 30% Calm Calm -- 27.70 in938.0 mb - 0.00 in0.0 mm 0.00 in0.0 mm
12:35 AM 68.5°F20.3°C 35.8°F2.1°C 30% Calm Calm -- 27.70 in938.0 mb - 0.00 in0.0 mm 0.00 in0.0 mm
12:40 AM 69.0°F20.6°C 36.3°F2.4°C 30% Calm Calm -- 27.70 in938.0 mb - 0.00 in0.0 mm 0.00 in0.0 mm
12:45 AM 69.1°F20.6°C 36.3°F2.4°C 30% Calm Calm -- 27.70 in938.0 mb - 0.00 in0.0 mm 0.00 in0.0 mm
12:50 AM 68.7°F20.4°C 36.0°F2.2°C 30% Calm Calm -- 27.70 in938.0 mb - 0.00 in0.0 mm 0.00 in0.0 mm
12:55 AM 68.7°F20.4°C 36.0°F2.2°C 30% Calm Calm -- 27.70 in938.0 mb - 0.00 in0.0 mm 0.00 in0.0 mm
01:00 AM 68.5°F20.3°C 35.8°F2.1°C 30% Calm Calm -- 27.70 in938.0 mb - 0.00 in0.0 mm 0.00 in0.0 mm
01:10 AM 68.4°F20.2°C 35.7°F2.1°C 30% Calm Calm -- 27.70 in938.0 mb - 0.00 in0.0 mm 0.00 in0.0 mm
01:15 AM 68.9°F20.5°C 36.2°F2.3°C 30% Calm Calm -- 27.70 in938.0 mb - 0.00 in0.0 mm 0.00 in0.0 mm
01:20 AM 69.1°F20.6°C 35.5°F1.9°C 29% Calm Calm -- 27.70 in938.0 mb - 0.00 in0.0 mm 0.00 in0.0 mm
01:25 AM 69.3°F20.7°C 35.7°F2.1°C 29% Calm Calm -- 27.70 in938.0 mb - 0.00 in0.0 mm 0.00 in0.0 mm
01:30 AM 69.1°F20.6°C 35.5°F1.9°C 29% Calm Calm -- 27.70 in938.0 mb - 0.00 in0.0 mm 0.00 in0.0 mm
01:35 AM 68.5°F20.3°C 35.0°F1.7°C 29% Calm Calm -- 27.70 in938.0 mb - 0.00 in0.0 mm 0.00 in0.0 mm
01:40 AM 68.4°F20.2°C 34.9°F1.6°C 29% Calm Calm -- 27.70 in938.0 mb - 0.00 in0.0 mm 0.00 in0.0 mm
01:45 AM 68.4°F20.2°C 34.9°F1.6°C 29% Calm Calm -- 27.70 in938.0 mb - 0.00 in0.0 mm 0.00 in0.0 mm
01:50 AM 67.8°F19.9°C 34.4°F1.3°C 29% Calm Calm -- 27.70 in938.0 mb - 0.00 in0.0 mm 0.00 in0.0 mm
01:55 AM 67.8°F19.9°C 34.4°F1.3°C 29% Calm Calm -- 27.70 in938.0 mb - 0.00 in0.0 mm 0.00 in0.0 mm
02:00 AM 67.3°F19.6°C 34.8°F1.6°C 30% Calm Calm -- 27.70 in938.0 mb - 0.00 in0.0 mm 0.00 in0.0 mm
02:10 AM 65.9°F18.8°C 35.2°F1.8°C 32% Calm Calm -- 27.70 in938.0 mb - 0.00 in0.0 mm 0.00 in0.0 mm
02:15 AM 65.8°F18.8°C 35.1°F1.7°C 32% Calm Calm -- 27.70 in938.0 mb - 0.00 in0.0 mm 0.00 in0.0 mm
02:20 AM 65.4°F18.6°C 34.7°F1.5°C 32% Calm Calm -- 27.70 in938.0 mb - 0.00 in0.0 mm 0.00 in0.0 mm
02:25 AM 65.3°F18.5°C 34.7°F1.5°C 32% Calm Calm -- 27.70 in938.0 mb - 0.00 in0.0 mm 0.00 in0.0 mm
02:30 AM 65.1°F18.4°C 34.5°F1.4°C 32% Calm Calm -- 27.70 in938.0 mb - 0.00 in0.0 mm 0.00 in0.0 mm
02:35 AM 64.4°F18.0°C 34.6°F1.4°C 33% Calm Calm -- 27.70 in938.0 mb - 0.00 in0.0 mm 0.00 in0.0 mm
02:40 AM 64.4°F18.0°C 34.6°F1.4°C 33% Calm Calm -- 27.70 in938.0 mb - 0.00 in0.0 mm 0.00 in0.0 mm
02:45 AM 64.2°F17.9°C 33.7°F0.9°C 32% Calm Calm -- 27.70 in938.0 mb - 0.00 in0.0 mm 0.00 in0.0 mm
02:50 AM 63.9°F17.7°C 33.5°F0.8°C 32% Calm Calm -- 27.70 in938.0 mb - 0.00 in0.0 mm 0.00 in0.0 mm
02:55 AM 63.3°F17.4°C 32.9°F0.5°C 32% Calm Calm -- 27.70 in938.0 mb - 0.00 in0.0 mm 0.00 in0.0 mm
03:00 AM 63.5°F17.5°C 31.5°F-0.3°C 30% Calm Calm -- 27.70 in938.0 mb - 0.00 in0.0 mm 0.00 in0.0 mm
03:10 AM 62.8°F17.1°C 30.0°F-1.1°C 29% Calm Calm -- 27.70 in938.0 mb - 0.00 in0.0 mm 0.00 in0.0 mm
03:15 AM 63.1°F17.3°C 30.3°F-0.9°C 29% Calm Calm -- 27.70 in938.0 mb - 0.00 in0.0 mm 0.00 in0.0 mm
03:20 AM 63.1°F17.3°C 29.4°F-1.4°C 28% Calm Calm -- 27.70 in938.0 mb - 0.00 in0.0 mm 0.00 in0.0 mm
03:25 AM 63.1°F17.3°C 29.4°F-1.4°C 28% Calm Calm -- 27.70 in938.0 mb - 0.00 in0.0 mm 0.00 in0.0 mm
03:30 AM 63.0°F17.2°C 30.2°F-1.0°C 29% Calm Calm -- 27.70 in938.0 mb - 0.00 in0.0 mm 0.00 in0.0 mm
03:35 AM 63.3°F17.4°C 30.5°F-0.8°C 29% Calm Calm -- 27.70 in938.0 mb - 0.00 in0.0 mm 0.00 in0.0 mm
03:40 AM 63.3°F17.4°C 31.3°F-0.4°C 30% Calm Calm -- 27.70 in938.0 mb - 0.00 in0.0 mm 0.00 in0.0 mm
03:45 AM 63.3°F17.4°C 31.3°F-0.4°C 30% Calm Calm -- 27.70 in938.0 mb - 0.00 in0.0 mm 0.00 in0.0 mm
03:50 AM 62.9°F17.2°C 31.0°F-0.6°C 30% Calm Calm -- 27.70 in938.0 mb - 0.00 in0.0 mm 0.00 in0.0 mm
03:55 AM 62.6°F17.0°C 30.7°F-0.7°C 30% Calm Calm -- 27.70 in938.0 mb - 0.00 in0.0 mm 0.00 in0.0 mm
04:00 AM 62.4°F16.9°C 30.5°F-0.8°C 30% Calm Calm -- 27.70 in938.0 mb - 0.00 in0.0 mm 0.00 in0.0 mm
04:10 AM 62.2°F16.8°C 31.2°F-0.4°C 31% Calm Calm -- 27.70 in938.0 mb - 0.00 in0.0 mm 0.00 in0.0 mm
04:15 AM 61.7°F16.5°C 30.7°F-0.7°C 31% Calm Calm -- 27.70 in938.0 mb - 0.00 in0.0 mm 0.00 in0.0 mm
04:20 AM 60.8°F16.0°C 30.7°F-0.7°C 32% Calm Calm -- 27.71 in938.4 mb - 0.00 in0.0 mm 0.00 in0.0 mm
04:25 AM 61.0°F16.1°C 30.9°F-0.6°C 32% Calm Calm -- 27.71 in938.4 mb - 0.00 in0.0 mm 0.00 in0.0 mm
04:30 AM 61.7°F16.5°C 31.5°F-0.3°C 32% Calm Calm -- 27.71 in938.4 mb - 0.00 in0.0 mm 0.00 in0.0 mm
04:35 AM 61.7°F16.5°C 32.3°F0.2°C 33% Calm Calm -- 27.71 in938.4 mb - 0.00 in0.0 mm 0.00 in0.0 mm
04:40 AM 61.5°F16.4°C 30.6°F-0.8°C 31% Calm Calm -- 27.71 in938.4 mb - 0.00 in0.0 mm 0.00 in0.0 mm
04:45 AM 60.7°F15.9°C 29.9°F-1.2°C 31% Calm Calm -- 27.71 in938.4 mb - 0.00 in0.0 mm 0.00 in0.0 mm
04:50 AM 60.6°F15.9°C 29.8°F-1.2°C 31% Calm Calm -- 27.71 in938.4 mb - 0.00 in0.0 mm 0.00 in0.0 mm
04:55 AM 61.2°F16.2°C 30.3°F-0.9°C 31% Calm Calm -- 27.71 in938.4 mb - 0.00 in0.0 mm 0.00 in0.0 mm
05:00 AM 61.8°F16.6°C 30.8°F-0.7°C 31% Calm Calm -- 27.71 in938.4 mb - 0.00 in0.0 mm 0.00 in0.0 mm
05:10 AM 62.4°F16.9°C 31.3°F-0.4°C 31% Calm Calm -- 27.72 in938.7 mb - 0.00 in0.0 mm 0.00 in0.0 mm
05:15 AM 62.6°F17.0°C 31.5°F-0.3°C 31% Calm Calm -- 27.72 in938.7 mb - 0.00 in0.0 mm 0.00 in0.0 mm
05:20 AM 62.3°F16.8°C 31.3°F-0.4°C 31% Calm Calm -- 27.72 in938.7 mb - 0.00 in0.0 mm 0.00 in0.0 mm
05:25 AM 61.5°F16.4°C 32.1°F0.1°C 33% Calm Calm -- 27.72 in938.7 mb - 0.00 in0.0 mm 0.00 in0.0 mm
05:30 AM 61.3°F16.3°C 31.2°F-0.4°C 32% Calm Calm -- 27.73 in939.0 mb - 0.00 in0.0 mm 0.00 in0.0 mm
05:35 AM 61.3°F16.3°C 31.9°F-0.1°C 33% Calm Calm -- 27.73 in939.0 mb - 0.00 in0.0 mm 0.00 in0.0 mm
05:40 AM 61.3°F16.3°C 31.9°F-0.1°C 33% Calm Calm -- 27.73 in939.0 mb - 0.00 in0.0 mm 0.00 in0.0 mm
05:45 AM 61.5°F16.4°C 31.3°F-0.4°C 32% Calm Calm -- 27.73 in939.0 mb - 0.00 in0.0 mm 0.00 in0.0 mm
05:50 AM 61.9°F16.6°C 31.7°F-0.2°C 32% Calm Calm -- 27.73 in939.0 mb - 0.00 in0.0 mm 0.00 in0.0 mm
05:55 AM 62.3°F16.8°C 32.0°F0.0°C 32% Calm Calm -- 27.73 in939.0 mb - 0.00 in0.0 mm 0.00 in0.0 mm
06:00 AM 62.7°F17.1°C 31.6°F-0.2°C 31% Calm Calm -- 27.73 in939.0 mb - 0.00 in0.0 mm 0.00 in0.0 mm
06:10 AM 65.4°F18.6°C 33.1°F0.6°C 30% Calm Calm -- 27.73 in939.0 mb - 0.00 in0.0 mm 0.00 in0.0 mm
06:15 AM 67.2°F19.6°C 33.8°F1.0°C 29% Calm Calm -- 27.73 in939.0 mb - 0.00 in0.0 mm 0.00 in0.0 mm
06:20 AM 67.8°F19.9°C 33.5°F0.8°C 28% Calm Calm -- 27.73 in939.0 mb - 0.00 in0.0 mm 0.00 in0.0 mm
06:25 AM 68.5°F20.3°C 34.1°F1.2°C 28% Calm Calm -- 27.73 in939.0 mb - 0.00 in0.0 mm 0.00 in0.0 mm
06:30 AM 69.2°F20.7°C 34.7°F1.5°C 28% Calm Calm -- 27.74 in939.4 mb - 0.00 in0.0 mm 0.00 in0.0 mm
06:35 AM 70.0°F21.1°C 34.5°F1.4°C 27% Calm Calm -- 27.74 in939.4 mb - 0.00 in0.0 mm 0.00 in0.0 mm
06:40 AM 70.1°F21.2°C 34.5°F1.4°C 27% Calm Calm -- 27.74 in939.4 mb - 0.00 in0.0 mm 0.00 in0.0 mm
06:45 AM 70.8°F21.6°C 35.1°F1.7°C 27% Calm Calm -- 27.74 in939.4 mb - 0.00 in0.0 mm 0.00 in0.0 mm
06:50 AM 71.4°F21.9°C 35.7°F2.1°C 27% Calm Calm -- 27.74 in939.4 mb - 0.00 in0.0 mm 0.00 in0.0 mm
06:55 AM 71.8°F22.1°C 35.0°F1.7°C 26% Calm Calm -- 27.74 in939.4 mb - 0.00 in0.0 mm 0.00 in0.0 mm
07:00 AM 72.0°F22.2°C 35.3°F1.8°C 26% Calm Calm -- 27.74 in939.4 mb - 0.00 in0.0 mm 0.00 in0.0 mm
07:10 AM 72.2°F22.3°C 32.3°F0.2°C 23% Calm Calm 1.2 mph1.9 kmh 27.74 in939.4 mb - 0.00 in0.0 mm 0.00 in0.0 mm
07:15 AM 74.4°F23.6°C 33.0°F0.6°C 22% 2.3 mph SSE3.7 kmh SSE 2.3 mph3.7 kmh 27.75 in939.7 mb - 0.00 in0.0 mm 0.00 in0.0 mm
07:20 AM 75.4°F24.1°C 32.7°F0.4°C 21% 2.3 mph SE3.7 kmh SE 2.3 mph3.7 kmh 27.75 in939.7 mb - 0.00 in0.0 mm 0.00 in0.0 mm
07:25 AM 76.5°F24.7°C 32.4°F0.2°C 20% 2.3 mph ESE3.7 kmh ESE 2.3 mph3.7 kmh 27.75 in939.7 mb - 0.00 in0.0 mm 0.00 in0.0 mm
07:30 AM 77.6°F25.3°C 33.4°F0.8°C 20% Calm Calm 1.2 mph1.9 kmh 27.75 in939.7 mb - 0.00 in0.0 mm 0.00 in0.0 mm
07:35 AM 77.4°F25.2°C 33.2°F0.7°C 20% 2.3 mph SSE3.7 kmh SSE 3.5 mph5.6 kmh 27.75 in939.7 mb - 0.00 in0.0 mm 0.00 in0.0 mm
07:40 AM 78.1°F25.6°C 32.4°F0.2°C 19% 1.2 mph SE1.9 kmh SE 3.5 mph5.6 kmh 27.75 in939.7 mb - 0.00 in0.0 mm 0.00 in0.0 mm
07:45 AM 79.1°F26.2°C 33.3°F0.7°C 19% 1.2 mph N1.9 kmh N 1.2 mph1.9 kmh 27.75 in939.7 mb - 0.00 in0.0 mm 0.00 in0.0 mm
07:50 AM 79.9°F26.6°C 32.6°F0.3°C 18% 2.3 mph S3.7 kmh S 2.3 mph3.7 kmh 27.75 in939.7 mb - 0.00 in0.0 mm 0.00 in0.0 mm
07:55 AM 80.2°F26.8°C 32.8°F0.4°C 18% 1.2 mph S1.9 kmh S 2.3 mph3.7 kmh 27.75 in939.7 mb - 0.00 in0.0 mm 0.00 in0.0 mm
08:00 AM 80.2°F26.8°C 31.4°F-0.3°C 17% 1.2 mph SE1.9 kmh SE 1.2 mph1.9 kmh 27.75 in939.7 mb - 0.00 in0.0 mm 0.00 in0.0 mm
08:10 AM 81.5°F27.5°C 32.5°F0.3°C 17% 1.2 mph SSE1.9 kmh SSE 1.2 mph1.9 kmh 27.75 in939.7 mb - 0.00 in0.0 mm 0.00 in0.0 mm
08:15 AM 81.3°F27.4°C 32.3°F0.2°C 17% Calm Calm 1.2 mph1.9 kmh 27.75 in939.7 mb - 0.00 in0.0 mm 0.00 in0.0 mm
08:20 AM 82.0°F27.8°C 34.3°F1.3°C 18% 2.3 mph S3.7 kmh S 2.3 mph3.7 kmh 27.75 in939.7 mb - 0.00 in0.0 mm 0.00 in0.0 mm
08:25 AM 81.3°F27.4°C 32.3°F0.2°C 17% 3.5 mph SE5.6 kmh SE 2.3 mph3.7 kmh 27.75 in939.7 mb - 0.00 in0.0 mm 0.00 in0.0 mm
08:30 AM 82.2°F27.9°C 33.0°F0.6°C 17% 2.3 mph SE3.7 kmh SE 6.9 mph11.1 kmh 27.75 in939.7 mb - 0.00 in0.0 mm 0.00 in0.0 mm
08:35 AM 81.0°F27.2°C 32.1°F0.1°C 17% 3.5 mph SW5.6 kmh SW 3.5 mph5.6 kmh 27.75 in939.7 mb - 0.00 in0.0 mm 0.00 in0.0 mm
08:40 AM 81.5°F27.5°C 32.5°F0.3°C 17% 3.5 mph SE5.6 kmh SE 3.5 mph5.6 kmh 27.76 in940.1 mb - 0.00 in0.0 mm 0.00 in0.0 mm
08:45 AM 82.3°F27.9°C 33.1°F0.6°C 17% 2.3 mph NNE3.7 kmh NNE 2.3 mph3.7 kmh 27.76 in940.1 mb - 0.00 in0.0 mm 0.00 in0.0 mm
08:50 AM 82.8°F28.2°C 32.0°F0.0°C 16% 2.3 mph S3.7 kmh S 4.6 mph7.4 kmh 27.76 in940.1 mb - 0.00 in0.0 mm 0.00 in0.0 mm
08:55 AM 83.6°F28.7°C 32.6°F0.3°C 16% 2.3 mph SW3.7 kmh SW 2.3 mph3.7 kmh 27.75 in939.7 mb - 0.00 in0.0 mm 0.00 in0.0 mm
09:00 AM 84.0°F28.9°C 33.0°F0.6°C 16% 2.3 mph SSW3.7 kmh SSW 5.8 mph9.3 kmh 27.75 in939.7 mb - 0.00 in0.0 mm 0.00 in0.0 mm
09:10 AM 82.9°F28.3°C 33.6°F0.9°C 17% 4.6 mph S7.4 kmh S 5.8 mph9.3 kmh 27.76 in940.1 mb - 0.00 in0.0 mm 0.00 in0.0 mm
09:15 AM 82.9°F28.3°C 35.0°F1.7°C 18% 4.6 mph SSW7.4 kmh SSW 5.8 mph9.3 kmh 27.76 in940.1 mb - 0.00 in0.0 mm 0.00 in0.0 mm
09:20 AM 83.5°F28.6°C 35.5°F1.9°C 18% Calm Calm 3.5 mph5.6 kmh 27.76 in940.1 mb - 0.00 in0.0 mm 0.00 in0.0 mm
09:25 AM 82.9°F28.3°C 36.4°F2.4°C 19% 3.5 mph SSW5.6 kmh SSW 4.6 mph7.4 kmh 27.76 in940.1 mb - 0.00 in0.0 mm 0.00 in0.0 mm
09:30 AM 82.9°F28.3°C 36.4°F2.4°C 19% 3.5 mph S5.6 kmh S 4.6 mph7.4 kmh 27.75 in939.7 mb - 0.00 in0.0 mm 0.00 in0.0 mm
09:35 AM 84.4°F29.1°C 36.3°F2.4°C 18% 3.5 mph S5.6 kmh S 3.5 mph5.6 kmh 27.75 in939.7 mb - 0.00 in0.0 mm 0.00 in0.0 mm
09:40 AM 83.5°F28.6°C 35.5°F1.9°C 18% 2.3 mph SW3.7 kmh SW 2.3 mph3.7 kmh 27.75 in939.7 mb - 0.00 in0.0 mm 0.00 in0.0 mm
09:45 AM 84.5°F29.2°C 37.7°F3.2°C 19% 4.6 mph SSE7.4 kmh SSE 4.6 mph7.4 kmh 27.75 in939.7 mb - 0.00 in0.0 mm 0.00 in0.0 mm
09:50 AM 84.7°F29.3°C 36.5°F2.5°C 18% 2.3 mph E3.7 kmh E 4.6 mph7.4 kmh 27.75 in939.7 mb - 0.00 in0.0 mm 0.00 in0.0 mm
09:55 AM 85.4°F29.7°C 37.1°F2.8°C 18% Calm Calm 1.2 mph1.9 kmh 27.75 in939.7 mb - 0.00 in0.0 mm 0.00 in0.0 mm
10:00 AM 85.5°F29.7°C 37.1°F2.8°C 18% 2.3 mph NNE3.7 kmh NNE 3.5 mph5.6 kmh 27.75 in939.7 mb - 0.00 in0.0 mm 0.00 in0.0 mm
10:10 AM 85.2°F29.6°C 35.5°F1.9°C 17% 4.6 mph ESE7.4 kmh ESE 5.8 mph9.3 kmh 27.76 in940.1 mb - 0.00 in0.0 mm 0.00 in0.0 mm
10:15 AM 85.5°F29.7°C 37.1°F2.8°C 18% 2.3 mph SSE3.7 kmh SSE 3.5 mph5.6 kmh 27.76 in940.1 mb - 0.00 in0.0 mm 0.00 in0.0 mm
10:20 AM 85.4°F29.7°C 37.1°F2.8°C 18% 4.6 mph S7.4 kmh S 4.6 mph7.4 kmh 27.75 in939.7 mb - 0.00 in0.0 mm 0.00 in0.0 mm
10:25 AM 85.7°F29.8°C 37.3°F2.9°C 18% 3.5 mph SE5.6 kmh SE 4.6 mph7.4 kmh 27.75 in939.7 mb - 0.00 in0.0 mm 0.00 in0.0 mm
10:30 AM 86.7°F30.4°C 36.7°F2.6°C 17% 3.5 mph SE5.6 kmh SE 8.1 mph13.0 kmh 27.76 in940.1 mb - 0.00 in0.0 mm 0.00 in0.0 mm
10:35 AM 87.1°F30.6°C 37.0°F2.8°C 17% 3.5 mph SSE5.6 kmh SSE 5.8 mph9.3 kmh 27.76 in940.1 mb - 0.00 in0.0 mm 0.00 in0.0 mm
10:40 AM 87.4°F30.8°C 37.2°F2.9°C 17% 5.8 mph S9.3 kmh S 6.9 mph11.1 kmh 27.76 in940.1 mb - 0.00 in0.0 mm 0.00 in0.0 mm
10:45 AM 87.2°F30.7°C 37.1°F2.8°C 17% 3.5 mph SE5.6 kmh SE 3.5 mph5.6 kmh 27.76 in940.1 mb - 0.00 in0.0 mm 0.00 in0.0 mm
10:50 AM 86.4°F30.2°C 36.4°F2.4°C 17% 4.6 mph E7.4 kmh E 3.5 mph5.6 kmh 27.76 in940.1 mb - 0.00 in0.0 mm 0.00 in0.0 mm
10:55 AM 87.4°F30.8°C 37.3°F2.9°C 17% 5.8 mph SSE9.3 kmh SSE 5.8 mph9.3 kmh 27.75 in939.7 mb - 0.00 in0.0 mm 0.00 in0.0 mm
11:00 AM 87.8°F31.0°C 39.0°F3.9°C 18% 2.3 mph WSW3.7 kmh WSW 2.3 mph3.7 kmh 27.75 in939.7 mb - 0.00 in0.0 mm 0.00 in0.0 mm
11:10 AM 86.3°F30.2°C 37.8°F3.2°C 18% 1.2 mph WSW1.9 kmh WSW 8.1 mph13.0 kmh 27.75 in939.7 mb - 0.00 in0.0 mm 0.00 in0.0 mm
11:15 AM 87.9°F31.1°C 39.1°F3.9°C 18% 4.6 mph S7.4 kmh S 5.8 mph9.3 kmh 27.75 in939.7 mb - 0.00 in0.0 mm 0.00 in0.0 mm
11:20 AM 87.4°F30.8°C 37.2°F2.9°C 17% 6.9 mph SW11.1 kmh SW 6.9 mph11.1 kmh 27.75 in939.7 mb - 0.00 in0.0 mm 0.00 in0.0 mm
11:25 AM 87.2°F30.7°C 38.5°F3.6°C 18% 6.9 mph S11.1 kmh S 10.4 mph16.7 kmh 27.75 in939.7 mb - 0.00 in0.0 mm 0.00 in0.0 mm
11:30 AM 86.9°F30.5°C 38.3°F3.5°C 18% 6.9 mph S11.1 kmh S 10.4 mph16.7 kmh 27.75 in939.7 mb - 0.00 in0.0 mm 0.00 in0.0 mm
11:35 AM 88.1°F31.2°C 39.3°F4.1°C 18% 3.5 mph S5.6 kmh S 5.8 mph9.3 kmh 27.75 in939.7 mb - 0.00 in0.0 mm 0.00 in0.0 mm
11:40 AM 88.4°F31.3°C 39.5°F4.2°C 18% 4.6 mph S7.4 kmh S 5.8 mph9.3 kmh 27.75 in939.7 mb - 0.00 in0.0 mm 0.00 in0.0 mm
11:45 AM 88.0°F31.1°C 39.2°F4.0°C 18% 3.5 mph SW5.6 kmh SW 5.8 mph9.3 kmh 27.75 in939.7 mb - 0.00 in0.0 mm 0.00 in0.0 mm
11:50 AM 88.3°F31.3°C 39.4°F4.1°C 18% 5.8 mph S9.3 kmh S 6.9 mph11.1 kmh 27.75 in939.7 mb - 0.00 in0.0 mm 0.00 in0.0 mm
11:55 AM 87.9°F31.1°C 39.1°F3.9°C 18% 4.6 mph S7.4 kmh S 4.6 mph7.4 kmh 27.74 in939.4 mb - 0.00 in0.0 mm 0.00 in0.0 mm
12:00 PM 89.2°F31.8°C 40.1°F4.5°C 18% 8.1 mph WSW13.0 kmh WSW 8.1 mph13.0 kmh 27.74 in939.4 mb - 0.00 in0.0 mm 0.00 in0.0 mm
12:10 PM 87.8°F31.0°C 39.0°F3.9°C 18% 3.5 mph S5.6 kmh S 4.6 mph7.4 kmh 27.74 in939.4 mb - 0.00 in0.0 mm 0.00 in0.0 mm
12:15 PM 90.5°F32.5°C 39.7°F4.3°C 17% 4.6 mph SSE7.4 kmh SSE 4.6 mph7.4 kmh 27.74 in939.4 mb - 0.00 in0.0 mm 0.00 in0.0 mm
12:20 PM 89.6°F32.0°C 39.0°F3.9°C 17% 1.2 mph WSW1.9 kmh WSW 1.2 mph1.9 kmh 27.74 in939.4 mb - 0.00 in0.0 mm 0.00 in0.0 mm
12:25 PM 90.1°F32.3°C 39.4°F4.1°C 17% 6.9 mph SSW11.1 kmh SSW 8.1 mph13.0 kmh 27.74 in939.4 mb - 0.00 in0.0 mm 0.00 in0.0 mm
12:30 PM 89.0°F31.7°C 38.5°F3.6°C 17% 5.8 mph S9.3 kmh S 5.8 mph9.3 kmh 27.74 in939.4 mb - 0.00 in0.0 mm 0.00 in0.0 mm
12:35 PM 88.9°F31.6°C 38.5°F3.6°C 17% 3.5 mph SSW5.6 kmh SSW 4.6 mph7.4 kmh 27.74 in939.4 mb - 0.00 in0.0 mm 0.00 in0.0 mm
12:40 PM 89.6°F32.0°C 39.0°F3.9°C 17% 5.8 mph SE9.3 kmh SE 6.9 mph11.1 kmh 27.74 in939.4 mb - 0.00 in0.0 mm 0.00 in0.0 mm
12:45 PM 90.6°F32.6°C 39.8°F4.3°C 17% 3.5 mph SE5.6 kmh SE 5.8 mph9.3 kmh 27.74 in939.4 mb - 0.00 in0.0 mm 0.00 in0.0 mm
12:50 PM 90.1°F32.3°C 39.4°F4.1°C 17% 5.8 mph S9.3 kmh S 6.9 mph11.1 kmh 27.74 in939.4 mb - 0.00 in0.0 mm 0.00 in0.0 mm
12:55 PM 89.7°F32.1°C 39.1°F3.9°C 17% 4.6 mph S7.4 kmh S 5.8 mph9.3 kmh 27.73 in939.0 mb - 0.00 in0.0 mm 0.00 in0.0 mm
01:00 PM 90.3°F32.4°C 39.6°F4.2°C 17% 9.2 mph S14.8 kmh S 10.4 mph16.7 kmh 27.73 in939.0 mb - 0.00 in0.0 mm 0.00 in0.0 mm
01:10 PM 89.3°F31.8°C 38.7°F3.7°C 17% 4.6 mph S7.4 kmh S 5.8 mph9.3 kmh 27.73 in939.0 mb - 0.00 in0.0 mm 0.00 in0.0 mm
01:15 PM 90.4°F32.4°C 39.6°F4.2°C 17% 5.8 mph ENE9.3 kmh ENE 9.2 mph14.8 kmh 27.73 in939.0 mb - 0.00 in0.0 mm 0.00 in0.0 mm
01:20 PM 91.9°F33.3°C 39.3°F4.1°C 16% 5.8 mph S9.3 kmh S 5.8 mph9.3 kmh 27.73 in939.0 mb - 0.00 in0.0 mm 0.00 in0.0 mm
01:25 PM 90.8°F32.7°C 38.4°F3.6°C 16% 4.6 mph SSE7.4 kmh SSE 5.8 mph9.3 kmh 27.73 in939.0 mb - 0.00 in0.0 mm 0.00 in0.0 mm
01:30 PM 89.2°F31.8°C 37.1°F2.8°C 16% 3.5 mph E5.6 kmh E 2.3 mph3.7 kmh 27.73 in939.0 mb - 0.00 in0.0 mm 0.00 in0.0 mm
01:35 PM 90.7°F32.6°C 38.3°F3.5°C 16% 2.3 mph WNW3.7 kmh WNW 2.3 mph3.7 kmh 27.73 in939.0 mb - 0.00 in0.0 mm 0.00 in0.0 mm
01:40 PM 90.2°F32.3°C 38.0°F3.3°C 16% 3.5 mph SSW5.6 kmh SSW 3.5 mph5.6 kmh 27.73 in939.0 mb - 0.00 in0.0 mm 0.00 in0.0 mm
01:45 PM 90.9°F32.7°C 38.5°F3.6°C 16% 3.5 mph S5.6 kmh S 8.1 mph13.0 kmh 27.73 in939.0 mb - 0.00 in0.0 mm 0.00 in0.0 mm
01:50 PM 91.0°F32.8°C 38.6°F3.7°C 16% 6.9 mph WSW11.1 kmh WSW 9.2 mph14.8 kmh 27.73 in939.0 mb - 0.00 in0.0 mm 0.00 in0.0 mm
01:55 PM 91.1°F32.8°C 37.0°F2.8°C 15% 5.8 mph SSW9.3 kmh SSW 8.1 mph13.0 kmh 27.72 in938.7 mb - 0.00 in0.0 mm 0.00 in0.0 mm
02:00 PM 91.2°F32.9°C 37.1°F2.8°C 15% 5.8 mph SSE9.3 kmh SSE 8.1 mph13.0 kmh 27.72 in938.7 mb - 0.00 in0.0 mm 0.00 in0.0 mm
02:10 PM 92.2°F33.4°C 36.1°F2.3°C 14% 5.8 mph S9.3 kmh S 6.9 mph11.1 kmh 27.72 in938.7 mb - 0.00 in0.0 mm 0.00 in0.0 mm
02:15 PM 92.2°F33.4°C 36.1°F2.3°C 14% 5.8 mph SSW9.3 kmh SSW 10.4 mph16.7 kmh 27.71 in938.4 mb - 0.00 in0.0 mm 0.00 in0.0 mm
02:20 PM 91.4°F33.0°C 35.5°F1.9°C 14% 8.1 mph SSW13.0 kmh SSW 9.2 mph14.8 kmh 27.71 in938.4 mb - 0.00 in0.0 mm 0.00 in0.0 mm
02:25 PM 90.1°F32.3°C 34.5°F1.4°C 14% 3.5 mph SSW5.6 kmh SSW 6.9 mph11.1 kmh 27.71 in938.4 mb - 0.00 in0.0 mm 0.00 in0.0 mm
02:30 PM 91.8°F33.2°C 35.8°F2.1°C 14% 6.9 mph SW11.1 kmh SW 6.9 mph11.1 kmh 27.71 in938.4 mb - 0.00 in0.0 mm 0.00 in0.0 mm
02:35 PM 91.4°F33.0°C 35.5°F1.9°C 14% 6.9 mph SSE11.1 kmh SSE 6.9 mph11.1 kmh 27.71 in938.4 mb - 0.00 in0.0 mm 0.00 in0.0 mm
02:40 PM 90.1°F32.3°C 34.5°F1.4°C 14% 3.5 mph S5.6 kmh S 5.8 mph9.3 kmh 27.71 in938.4 mb - 0.00 in0.0 mm 0.00 in0.0 mm
02:45 PM 91.3°F32.9°C 35.4°F1.9°C 14% 3.5 mph SSW5.6 kmh SSW 4.6 mph7.4 kmh 27.71 in938.4 mb - 0.00 in0.0 mm 0.00 in0.0 mm
02:50 PM 90.6°F32.6°C 34.9°F1.6°C 14% 6.9 mph S11.1 kmh S 9.2 mph14.8 kmh 27.71 in938.4 mb - 0.00 in0.0 mm 0.00 in0.0 mm
02:55 PM 91.1°F32.8°C 35.3°F1.8°C 14% 8.1 mph SW13.0 kmh SW 8.1 mph13.0 kmh 27.71 in938.4 mb - 0.00 in0.0 mm 0.00 in0.0 mm
03:00 PM 92.3°F33.5°C 36.2°F2.3°C 14% 5.8 mph SSW9.3 kmh SSW 6.9 mph11.1 kmh 27.71 in938.4 mb - 0.00 in0.0 mm 0.00 in0.0 mm
03:10 PM 91.9°F33.3°C 37.6°F3.1°C 15% 6.9 mph S11.1 kmh S 8.1 mph13.0 kmh 27.71 in938.4 mb - 0.00 in0.0 mm 0.00 in0.0 mm
03:15 PM 91.9°F33.3°C 35.9°F2.2°C 14% 4.6 mph SE7.4 kmh SE 3.5 mph5.6 kmh 27.71 in938.4 mb - 0.00 in0.0 mm 0.00 in0.0 mm
03:20 PM 91.0°F32.8°C 35.2°F1.8°C 14% 8.1 mph S13.0 kmh S 8.1 mph13.0 kmh 27.71 in938.4 mb - 0.00 in0.0 mm 0.00 in0.0 mm
03:25 PM 90.3°F32.4°C 34.7°F1.5°C 14% 5.8 mph SSW9.3 kmh SSW 6.9 mph11.1 kmh 27.71 in938.4 mb - 0.00 in0.0 mm 0.00 in0.0 mm
03:30 PM 90.8°F32.7°C 35.0°F1.7°C 14% 3.5 mph S5.6 kmh S 4.6 mph7.4 kmh 27.71 in938.4 mb - 0.00 in0.0 mm 0.00 in0.0 mm
03:35 PM 90.8°F32.7°C 35.0°F1.7°C 14% 5.8 mph S9.3 kmh S 6.9 mph11.1 kmh 27.71 in938.4 mb - 0.00 in0.0 mm 0.00 in0.0 mm
03:40 PM 90.8°F32.7°C 35.1°F1.7°C 14% 5.8 mph SW9.3 kmh SW 8.1 mph13.0 kmh 27.71 in938.4 mb - 0.00 in0.0 mm 0.00 in0.0 mm
03:45 PM 90.4°F32.4°C 34.7°F1.5°C 14% 4.6 mph SW7.4 kmh SW 6.9 mph11.1 kmh 27.71 in938.4 mb - 0.00 in0.0 mm 0.00 in0.0 mm
03:50 PM 90.2°F32.3°C 34.6°F1.4°C 14% 4.6 mph ESE7.4 kmh ESE 6.9 mph11.1 kmh 27.71 in938.4 mb - 0.00 in0.0 mm 0.00 in0.0 mm
03:55 PM 89.7°F32.1°C 34.2°F1.2°C 14% 6.9 mph SW11.1 kmh SW 6.9 mph11.1 kmh 27.70 in938.0 mb - 0.00 in0.0 mm 0.00 in0.0 mm
04:00 PM 89.7°F32.1°C 34.1°F1.2°C 14% 3.5 mph SW5.6 kmh SW 3.5 mph5.6 kmh 27.70 in938.0 mb - 0.00 in0.0 mm 0.00 in0.0 mm
04:10 PM 89.9°F32.2°C 34.3°F1.3°C 14% 9.2 mph SSW14.8 kmh SSW 11.5 mph18.5 kmh 27.70 in938.0 mb - 0.00 in0.0 mm 0.00 in0.0 mm
04:15 PM 90.0°F32.2°C 34.4°F1.3°C 14% 4.6 mph SSW7.4 kmh SSW 9.2 mph14.8 kmh 27.70 in938.0 mb - 0.00 in0.0 mm 0.00 in0.0 mm
04:19 PM 88.5°F31.4°C 33.2°F0.7°C 14% 4.6 mph SE7.4 kmh SE 4.6 mph7.4 kmh 27.70 in938.0 mb - 0.00 in0.0 mm 0.00 in0.0 mm
04:20 PM 88.7°F31.5°C 33.4°F0.8°C 14% 4.6 mph SSW7.4 kmh SSW 5.8 mph9.3 kmh 27.70 in938.0 mb - 0.00 in0.0 mm 0.00 in0.0 mm
04:25 PM 89.8°F32.1°C 34.2°F1.2°C 14% 5.8 mph SSW9.3 kmh SSW 6.9 mph11.1 kmh 27.70 in938.0 mb - 0.00 in0.0 mm 0.00 in0.0 mm
04:30 PM 90.1°F32.3°C 34.5°F1.4°C 14% 2.3 mph SW3.7 kmh SW 5.8 mph9.3 kmh 27.70 in938.0 mb - 0.00 in0.0 mm 0.00 in0.0 mm
04:35 PM 89.2°F31.8°C 33.8°F1.0°C 14% 4.6 mph SW7.4 kmh SW 4.6 mph7.4 kmh 27.70 in938.0 mb - 0.00 in0.0 mm 0.00 in0.0 mm
04:40 PM 89.8°F32.1°C 34.2°F1.2°C 14% 4.6 mph SW7.4 kmh SW 8.1 mph13.0 kmh 27.70 in938.0 mb - 0.00 in0.0 mm 0.00 in0.0 mm
04:45 PM 88.7°F31.5°C 33.4°F0.8°C 14% 9.2 mph S14.8 kmh S 10.4 mph16.7 kmh 27.70 in938.0 mb - 0.00 in0.0 mm 0.00 in0.0 mm
04:50 PM 88.1°F31.2°C 34.6°F1.4°C 15% 2.3 mph SW3.7 kmh SW 5.8 mph9.3 kmh 27.70 in938.0 mb - 0.00 in0.0 mm 0.00 in0.0 mm
04:55 PM 88.5°F31.4°C 33.2°F0.7°C 14% 5.8 mph SSW9.3 kmh SSW 5.8 mph9.3 kmh 27.70 in938.0 mb - 0.00 in0.0 mm 0.00 in0.0 mm
05:00 PM 88.2°F31.2°C 32.9°F0.5°C 14% 4.6 mph S7.4 kmh S 4.6 mph7.4 kmh 27.70 in938.0 mb - 0.00 in0.0 mm 0.00 in0.0 mm
05:10 PM 88.5°F31.4°C 33.2°F0.7°C 14% 4.6 mph S7.4 kmh S 8.1 mph13.0 kmh 27.70 in938.0 mb - 0.00 in0.0 mm 0.00 in0.0 mm
05:15 PM 88.2°F31.2°C 31.2°F-0.4°C 13% 4.6 mph SSE7.4 kmh SSE 4.6 mph7.4 kmh 27.70 in938.0 mb - 0.00 in0.0 mm 0.00 in0.0 mm
05:20 PM 88.7°F31.5°C 31.5°F-0.3°C 13% 3.5 mph S5.6 kmh S 5.8 mph9.3 kmh 27.70 in938.0 mb - 0.00 in0.0 mm 0.00 in0.0 mm
05:25 PM 88.3°F31.3°C 31.2°F-0.4°C 13% 4.6 mph SW7.4 kmh SW 3.5 mph5.6 kmh 27.70 in938.0 mb - 0.00 in0.0 mm 0.00 in0.0 mm
05:30 PM 88.3°F31.3°C 33.0°F0.6°C 14% 5.8 mph S9.3 kmh S 6.9 mph11.1 kmh 27.70 in938.0 mb - 0.00 in0.0 mm 0.00 in0.0 mm
05:35 PM 87.8°F31.0°C 32.7°F0.4°C 14% 6.9 mph SSW11.1 kmh SSW 6.9 mph11.1 kmh 27.70 in938.0 mb - 0.00 in0.0 mm 0.00 in0.0 mm
05:40 PM 87.5°F30.8°C 32.4°F0.2°C 14% 5.8 mph SSE9.3 kmh SSE 6.9 mph11.1 kmh 27.70 in938.0 mb - 0.00 in0.0 mm 0.00 in0.0 mm
05:45 PM 87.6°F30.9°C 32.5°F0.3°C 14% 4.6 mph S7.4 kmh S 5.8 mph9.3 kmh 27.70 in938.0 mb - 0.00 in0.0 mm 0.00 in0.0 mm
05:50 PM 87.4°F30.8°C 34.1°F1.2°C 15% 6.9 mph WSW11.1 kmh WSW 5.8 mph9.3 kmh 27.70 in938.0 mb - 0.00 in0.0 mm 0.00 in0.0 mm
05:55 PM 87.4°F30.8°C 34.1°F1.2°C 15% 6.9 mph SW11.1 kmh SW 5.8 mph9.3 kmh 27.70 in938.0 mb - 0.00 in0.0 mm 0.00 in0.0 mm
06:00 PM 87.3°F30.7°C 34.0°F1.1°C 15% 5.8 mph S9.3 kmh S 5.8 mph9.3 kmh 27.70 in938.0 mb - 0.00 in0.0 mm 0.00 in0.0 mm
06:10 PM 87.1°F30.6°C 35.5°F1.9°C 16% 2.3 mph S3.7 kmh S 4.6 mph7.4 kmh 27.70 in938.0 mb - 0.00 in0.0 mm 0.00 in0.0 mm
06:15 PM 87.1°F30.6°C 35.5°F1.9°C 16% 4.6 mph SSW7.4 kmh SSW 5.8 mph9.3 kmh 27.70 in938.0 mb - 0.00 in0.0 mm 0.00 in0.0 mm
06:20 PM 86.9°F30.5°C 35.3°F1.8°C 16% 1.2 mph SW1.9 kmh SW 2.3 mph3.7 kmh 27.70 in938.0 mb - 0.00 in0.0 mm 0.00 in0.0 mm
06:25 PM 86.7°F30.4°C 35.1°F1.7°C 16% 4.6 mph SW7.4 kmh SW 5.8 mph9.3 kmh 27.70 in938.0 mb - 0.00 in0.0 mm 0.00 in0.0 mm
06:30 PM 86.5°F30.3°C 34.9°F1.6°C 16% 5.8 mph S9.3 kmh S 8.1 mph13.0 kmh 27.70 in938.0 mb - 0.00 in0.0 mm 0.00 in0.0 mm
06:35 PM 86.2°F30.1°C 34.7°F1.5°C 16% 4.6 mph SSW7.4 kmh SSW 5.8 mph9.3 kmh 27.70 in938.0 mb - 0.00 in0.0 mm 0.00 in0.0 mm
06:40 PM 86.3°F30.2°C 34.8°F1.6°C 16% 3.5 mph S5.6 kmh S 6.9 mph11.1 kmh 27.70 in938.0 mb - 0.00 in0.0 mm 0.00 in0.0 mm
06:45 PM 86.2°F30.1°C 34.7°F1.5°C 16% 4.6 mph WSW7.4 kmh WSW 5.8 mph9.3 kmh 27.70 in938.0 mb - 0.00 in0.0 mm 0.00 in0.0 mm
06:50 PM 86.1°F30.1°C 34.7°F1.5°C 16% 4.6 mph WSW7.4 kmh WSW 5.8 mph9.3 kmh 27.70 in938.0 mb - 0.00 in0.0 mm 0.00 in0.0 mm
06:55 PM 85.7°F29.8°C 34.4°F1.3°C 16% 2.3 mph S3.7 kmh S 5.8 mph9.3 kmh 27.71 in938.4 mb - 0.00 in0.0 mm 0.00 in0.0 mm
07:00 PM 85.5°F29.7°C 34.2°F1.2°C 16% 4.6 mph SSW7.4 kmh SSW 4.6 mph7.4 kmh 27.71 in938.4 mb - 0.00 in0.0 mm 0.00 in0.0 mm
07:10 PM 85.3°F29.6°C 34.0°F1.1°C 16% 3.5 mph S5.6 kmh S 5.8 mph9.3 kmh 27.71 in938.4 mb - 0.00 in0.0 mm 0.00 in0.0 mm
07:15 PM 84.9°F29.4°C 33.7°F0.9°C 16% 3.5 mph SSW5.6 kmh SSW 5.8 mph9.3 kmh 27.71 in938.4 mb - 0.00 in0.0 mm 0.00 in0.0 mm
07:20 PM 84.7°F29.3°C 33.5°F0.8°C 16% 2.3 mph S3.7 kmh S 3.5 mph5.6 kmh 27.72 in938.7 mb - 0.00 in0.0 mm 0.00 in0.0 mm
07:25 PM 84.5°F29.2°C 34.8°F1.6°C 17% 2.3 mph SW3.7 kmh SW 3.5 mph5.6 kmh 27.72 in938.7 mb - 0.00 in0.0 mm 0.00 in0.0 mm
07:30 PM 84.2°F29.0°C 34.6°F1.4°C 17% 1.2 mph S1.9 kmh S 1.2 mph1.9 kmh 27.72 in938.7 mb - 0.00 in0.0 mm 0.00 in0.0 mm
07:35 PM 83.8°F28.8°C 34.3°F1.3°C 17% 1.2 mph S1.9 kmh S 1.2 mph1.9 kmh 27.72 in938.7 mb - 0.00 in0.0 mm 0.00 in0.0 mm
07:40 PM 83.5°F28.6°C 34.1°F1.2°C 17% 1.2 mph SSW1.9 kmh SSW 3.5 mph5.6 kmh 27.72 in938.7 mb - 0.00 in0.0 mm 0.00 in0.0 mm
07:45 PM 83.1°F28.4°C 33.8°F1.0°C 17% 1.2 mph S1.9 kmh S 2.3 mph3.7 kmh 27.72 in938.7 mb - 0.00 in0.0 mm 0.00 in0.0 mm
07:50 PM 82.8°F28.2°C 33.5°F0.8°C 17% 1.2 mph SW1.9 kmh SW 1.2 mph1.9 kmh 27.72 in938.7 mb - 0.00 in0.0 mm 0.00 in0.0 mm
07:55 PM 82.6°F28.1°C 33.4°F0.8°C 17% 1.2 mph SW1.9 kmh SW 4.6 mph7.4 kmh 27.73 in939.0 mb - 0.00 in0.0 mm 0.00 in0.0 mm
08:00 PM 82.6°F28.1°C 33.4°F0.8°C 17% 2.3 mph S3.7 kmh S 3.5 mph5.6 kmh 27.73 in939.0 mb - 0.00 in0.0 mm 0.00 in0.0 mm
08:10 PM 82.0°F27.8°C 34.3°F1.3°C 18% 1.2 mph SW1.9 kmh SW 2.3 mph3.7 kmh 27.73 in939.0 mb - 0.00 in0.0 mm 0.00 in0.0 mm
08:15 PM 81.9°F27.7°C 34.2°F1.2°C 18% 2.3 mph S3.7 kmh S 2.3 mph3.7 kmh 27.73 in939.0 mb - 0.00 in0.0 mm 0.00 in0.0 mm
08:20 PM 81.7°F27.6°C 34.1°F1.2°C 18% 2.3 mph S3.7 kmh S 2.3 mph3.7 kmh 27.73 in939.0 mb - 0.00 in0.0 mm 0.00 in0.0 mm
08:25 PM 81.3°F27.4°C 33.7°F0.9°C 18% 1.2 mph SW1.9 kmh SW 2.3 mph3.7 kmh 27.73 in939.0 mb - 0.00 in0.0 mm 0.00 in0.0 mm
08:30 PM 81.0°F27.2°C 33.5°F0.8°C 18% Calm Calm 2.3 mph3.7 kmh 27.73 in939.0 mb - 0.00 in0.0 mm 0.00 in0.0 mm
08:35 PM 80.6°F27.0°C 33.1°F0.6°C 18% Calm Calm -- 27.73 in939.0 mb - 0.00 in0.0 mm 0.00 in0.0 mm
08:40 PM 80.2°F26.8°C 32.8°F0.4°C 18% Calm Calm -- 27.73 in939.0 mb - 0.00 in0.0 mm 0.00 in0.0 mm
08:45 PM 79.7°F26.5°C 32.4°F0.2°C 18% Calm Calm -- 27.73 in939.0 mb - 0.00 in0.0 mm 0.00 in0.0 mm
08:50 PM 79.2°F26.2°C 33.4°F0.8°C 19% Calm Calm -- 27.73 in939.0 mb - 0.00 in0.0 mm 0.00 in0.0 mm
08:55 PM 78.7°F25.9°C 32.9°F0.5°C 19% Calm Calm -- 27.74 in939.4 mb - 0.00 in0.0 mm 0.00 in0.0 mm
09:00 PM 78.1°F25.6°C 32.5°F0.3°C 19% Calm Calm -- 27.74 in939.4 mb - 0.00 in0.0 mm 0.00 in0.0 mm
09:10 PM 77.3°F25.2°C 31.8°F-0.1°C 19% Calm Calm -- 27.75 in939.7 mb - 0.00 in0.0 mm 0.00 in0.0 mm
09:15 PM 77.0°F25.0°C 32.8°F0.4°C 20% Calm Calm -- 27.75 in939.7 mb - 0.00 in0.0 mm 0.00 in0.0 mm
09:20 PM 76.3°F24.6°C 32.3°F0.2°C 20% 1.2 mph NE1.9 kmh NE 1.2 mph1.9 kmh 27.75 in939.7 mb - 0.00 in0.0 mm 0.00 in0.0 mm
09:25 PM 76.3°F24.6°C 32.3°F0.2°C 20% Calm Calm -- 27.75 in939.7 mb - 0.00 in0.0 mm 0.00 in0.0 mm
09:30 PM 76.1°F24.5°C 32.1°F0.1°C 20% Calm Calm -- 27.75 in939.7 mb - 0.00 in0.0 mm 0.00 in0.0 mm
09:35 PM 76.5°F24.7°C 32.4°F0.2°C 20% Calm Calm -- 27.75 in939.7 mb - 0.00 in0.0 mm 0.00 in0.0 mm
09:40 PM 76.5°F24.7°C 32.4°F0.2°C 20% Calm Calm -- 27.76 in940.1 mb - 0.00 in0.0 mm 0.00 in0.0 mm
09:45 PM 76.5°F24.7°C 32.4°F0.2°C 20% Calm Calm -- 27.76 in940.1 mb - 0.00 in0.0 mm 0.00 in0.0 mm
09:50 PM 76.3°F24.6°C 32.2°F0.1°C 20% Calm Calm -- 27.76 in940.1 mb - 0.00 in0.0 mm 0.00 in0.0 mm
09:55 PM 75.7°F24.3°C 31.7°F-0.2°C 20% Calm Calm -- 27.76 in940.1 mb - 0.00 in0.0 mm 0.00 in0.0 mm
10:00 PM 75.4°F24.1°C 31.5°F-0.3°C 20% Calm Calm -- 27.76 in940.1 mb - 0.00 in0.0 mm 0.00 in0.0 mm
10:10 PM 75.6°F24.2°C 31.7°F-0.2°C 20% Calm Calm -- 27.76 in940.1 mb - 0.00 in0.0 mm 0.00 in0.0 mm
10:15 PM 75.4°F24.1°C 31.5°F-0.3°C 20% Calm Calm -- 27.77 in940.4 mb - 0.00 in0.0 mm 0.00 in0.0 mm
10:20 PM 74.8°F23.8°C 32.2°F0.1°C 21% Calm Calm -- 27.77 in940.4 mb - 0.00 in0.0 mm 0.00 in0.0 mm
10:25 PM 74.8°F23.8°C 32.2°F0.1°C 21% Calm Calm -- 27.77 in940.4 mb - 0.00 in0.0 mm 0.00 in0.0 mm
10:30 PM 74.8°F23.8°C 32.2°F0.1°C 21% Calm Calm -- 27.77 in940.4 mb - 0.00 in0.0 mm 0.00 in0.0 mm
10:35 PM 74.7°F23.7°C 32.1°F0.1°C 21% Calm Calm -- 27.77 in940.4 mb - 0.00 in0.0 mm 0.00 in0.0 mm
10:40 PM 74.7°F23.7°C 32.1°F0.1°C 21% Calm Calm -- 27.77 in940.4 mb - 0.00 in0.0 mm 0.00 in0.0 mm
10:45 PM 74.3°F23.5°C 31.8°F-0.1°C 21% Calm Calm -- 27.77 in940.4 mb - 0.00 in0.0 mm 0.00 in0.0 mm
10:50 PM 74.3°F23.5°C 31.8°F-0.1°C 21% Calm Calm -- 27.77 in940.4 mb - 0.00 in0.0 mm 0.00 in0.0 mm
10:55 PM 73.9°F23.3°C 31.5°F-0.3°C 21% Calm Calm -- 27.77 in940.4 mb - 0.00 in0.0 mm 0.00 in0.0 mm
11:00 PM 73.6°F23.1°C 31.2°F-0.4°C 21% Calm Calm -- 27.77 in940.4 mb - 0.00 in0.0 mm 0.00 in0.0 mm
11:10 PM 73.2°F22.9°C 32.1°F0.1°C 22% Calm Calm -- 27.78 in940.7 mb - 0.00 in0.0 mm 0.00 in0.0 mm
11:15 PM 73.1°F22.8°C 31.9°F-0.1°C 22% Calm Calm -- 27.78 in940.7 mb - 0.00 in0.0 mm 0.00 in0.0 mm
11:20 PM 73.0°F22.8°C 31.9°F-0.1°C 22% Calm Calm -- 27.78 in940.7 mb - 0.00 in0.0 mm 0.00 in0.0 mm
11:25 PM 73.0°F22.8°C 31.9°F-0.1°C 22% Calm Calm -- 27.78 in940.7 mb - 0.00 in0.0 mm 0.00 in0.0 mm
11:30 PM 73.0°F22.8°C 33.0°F0.6°C 23% Calm Calm -- 27.78 in940.7 mb - 0.00 in0.0 mm 0.00 in0.0 mm
11:35 PM 72.1°F22.3°C 32.2°F0.1°C 23% Calm Calm -- 27.78 in940.7 mb - 0.00 in0.0 mm 0.00 in0.0 mm
11:40 PM 72.0°F22.2°C 32.1°F0.1°C 23% Calm Calm -- 27.78 in940.7 mb - 0.00 in0.0 mm 0.00 in0.0 mm
11:45 PM 71.2°F21.8°C 32.5°F0.3°C 24% Calm Calm -- 27.78 in940.7 mb - 0.00 in0.0 mm 0.00 in0.0 mm
11:50 PM 70.8°F21.6°C 32.2°F0.1°C 24% Calm Calm -- 27.78 in940.7 mb - 0.00 in0.0 mm 0.00 in0.0 mm
11:55 PM 70.5°F21.4°C 31.9°F-0.1°C 24% Calm Calm -- 27.78 in940.7 mb - 0.00 in0.0 mm 0.00 in0.0 mm